Time;durP1;ratioP1;P1;durP2;ratioP2;P2;SDS_P1;SDS_P2;PMS_P1;PMS_P2;Temp;Humidity;BMP_temperature;BMP_pressure;BME280_temperature;BME280_humidity;BME280_pressure;Samples;Min_cycle;Max_cycle;Signal;HPM_P1;HPM_P2
2023/03/21 00:01:33;;;;;;;53.17;28.20;;;7.10;99.90;;;7.34;100.00;100858.78;5009711;28;20041;-76
2023/03/21 00:03:59;;;;;;;52.45;28.55;;;7.20;99.90;;;7.26;100.00;100854.28;5009976;28;20064;-76
2023/03/21 00:06:25;;;;;;;54.40;28.73;;;7.10;99.90;;;7.33;100.00;100851.66;5010246;28;20034;-76
2023/03/21 00:08:51;;;;;;;49.30;28.23;;;7.20;99.90;;;7.24;100.00;100848.22;5009774;28;20042;-76
2023/03/21 00:11:16;;;;;;;54.17;29.20;;;7.20;99.90;;;7.36;100.00;100851.28;5010246;28;20044;-74
2023/03/21 00:13:42;;;;;;;51.92;28.17;;;7.20;99.90;;;7.34;100.00;100834.34;5010013;28;20033;-75
2023/03/21 00:16:17;;;;;;;61.08;29.98;;;7.20;99.90;;;7.37;100.00;100839.38;5013289;28;20073;-75
2023/03/21 00:18:51;;;;;;;51.88;28.48;;;7.20;99.90;;;7.41;100.00;100846.13;5013645;28;20120;-74
2023/03/21 00:21:20;;;;;;;51.78;28.00;;;7.20;99.90;;;7.40;100.00;100838.16;5013071;28;20089;-75
2023/03/21 00:23:46;;;;;;;50.75;28.52;;;7.20;99.90;;;7.32;100.00;100836.41;5013221;28;20034;-76
2023/03/21 00:26:14;;;;;;;56.00;28.02;;;7.20;99.90;;;7.40;100.00;100836.28;5014591;28;20118;-75
2023/03/21 00:28:42;;;;;;;52.20;29.38;;;7.20;99.90;;;7.29;100.00;100834.06;5013325;28;20084;-75
2023/03/21 00:31:08;;;;;;;;;;;7.20;99.90;;;7.35;100.00;100827.88;5013824;28;20373;-75
2023/03/21 00:33:36;;;;;;;49.95;27.35;;;7.20;99.90;;;7.41;100.00;100828.97;5013539;28;20069;-74
2023/03/21 00:36:02;;;;;;;;;;;7.20;99.90;;;7.57;100.00;100833.34;5012238;28;20034;-74
2023/03/21 00:38:28;;;;;;;52.55;27.20;;;7.20;99.90;;;7.42;100.00;100819.78;5004546;28;19918;-75
2023/03/21 00:40:54;;;;;;;52.63;28.42;;;7.20;99.90;;;7.58;100.00;100825.00;5012865;28;20091;-74
2023/03/21 00:43:22;;;;;;;57.55;29.08;;;7.20;99.90;;;7.60;100.00;100822.09;5013441;28;20110;-74
2023/03/21 00:45:50;;;;;;;52.10;28.42;;;7.30;99.90;;;7.55;100.00;100819.94;5013074;28;20500;-75
2023/03/21 00:48:17;;;;;;;53.63;28.30;;;7.30;99.90;;;7.51;100.00;100820.53;5028454;28;20037;-75
2023/03/21 00:50:45;;;;;;;54.72;28.02;;;7.30;99.90;;;7.55;100.00;100819.09;5012256;28;20329;-75
2023/03/21 00:53:14;;;;;;;56.78;29.13;;;7.30;99.90;;;7.57;100.00;100814.34;5013546;28;20053;-74
2023/03/21 00:55:40;;;;;;;51.22;27.45;;;7.30;99.90;;;7.61;100.00;100802.06;5011649;28;20037;-75
2023/03/21 00:58:06;;;;;;;55.50;28.85;;;7.30;99.90;;;7.74;100.00;100815.75;5012901;28;20506;-75
2023/03/21 01:00:35;;;;;;;49.95;28.33;;;7.30;99.90;;;7.72;100.00;100811.56;5018992;28;20025;-75
2023/03/21 01:03:06;;;;;;;49.72;27.95;;;7.30;99.90;;;7.71;100.00;100801.75;5013167;28;20517;-75
2023/03/21 01:08:27;;;;;;;49.90;27.67;;;7.30;99.90;;;7.70;100.00;100803.59;5011665;28;20412;-75
2023/03/21 01:10:54;;;;;;;54.88;27.80;;;7.30;99.90;;;7.68;100.00;100793.94;5012276;28;20979;-75
2023/03/21 01:13:24;;;;;;;46.60;27.40;;;7.40;99.90;;;7.72;100.00;100800.69;5027708;28;20068;-75
2023/03/21 01:15:58;;;;;;;45.35;26.77;;;7.40;99.90;;;7.75;100.00;100797.59;5012685;28;20037;-75
2023/03/21 01:18:28;;;;;;;51.35;27.85;;;7.40;99.90;;;7.66;100.00;100799.59;5012480;28;20036;-75
2023/03/21 01:20:59;;;;;;;48.15;26.75;;;7.40;99.90;;;7.59;100.00;100791.38;5026852;28;20053;-75
2023/03/21 01:23:28;;;;;;;48.97;27.90;;;7.40;99.90;;;7.62;100.00;100793.69;5027805;28;20036;-75
2023/03/21 01:25:55;;;;;;;49.95;28.05;;;7.40;99.90;;;7.56;100.00;100799.06;5027388;28;20349;-75
2023/03/21 01:28:27;;;;;;;48.50;27.25;;;7.40;99.90;;;7.63;100.00;100791.84;5026696;28;20025;-75
2023/03/21 01:30:54;;;;;;;48.78;28.52;;;7.30;99.90;;;7.68;100.00;100793.94;5007057;28;20116;-75
2023/03/21 01:33:21;;;;;;;48.30;27.65;;;7.40;99.90;;;7.69;100.00;100792.91;5011625;28;20477;-75
2023/03/21 01:35:48;;;;;;;50.85;28.25;;;7.40;99.90;;;7.56;100.00;100794.47;5011396;28;20045;-75
2023/03/21 01:38:14;;;;;;;51.05;28.15;;;7.40;99.90;;;7.63;100.00;100792.66;5011427;28;20458;-75
2023/03/21 01:40:45;;;;;;;52.10;28.92;;;7.30;99.90;;;7.66;100.00;100787.88;4998790;28;20092;-75
2023/03/21 01:43:33;;;;;;;55.80;28.10;;;7.40;99.90;;;7.72;100.00;100787.13;5009528;28;20050;-74
2023/03/21 01:46:43;;;;;;;48.72;27.80;;;7.40;99.90;;;7.75;100.00;100784.00;5007528;28;20026;-75
2023/03/21 01:49:39;;;;;;;48.08;27.42;;;7.40;99.90;;;7.75;100.00;100789.44;5006667;28;20053;-75
2023/03/21 01:52:27;;;;;;;49.17;29.42;;;7.40;99.90;;;7.70;100.00;100786.47;5027241;28;20143;-75
2023/03/21 01:54:56;;;;;;;50.30;28.92;;;7.40;99.90;;;7.81;100.00;100787.81;5023754;28;20026;-75
2023/03/21 01:57:31;;;;;;;47.83;27.77;;;7.40;99.90;;;7.74;100.00;100779.63;5026730;28;20091;-75
2023/03/21 02:00:11;;;;;;;51.35;28.20;;;7.40;99.90;;;7.83;100.00;100772.19;5009777;28;20037;-75
2023/03/21 02:02:58;;;;;;;52.42;27.55;;;7.40;99.90;;;7.84;100.00;100777.41;5010781;28;20573;-75
2023/03/21 02:06:00;;;;;;;51.65;29.27;;;7.40;99.90;;;7.80;100.00;100773.41;5007346;28;20034;-75
2023/03/21 02:08:32;;;;;;;51.92;28.30;;;7.40;99.90;;;7.82;100.00;100778.63;4985964;28;20117;-76
2023/03/21 02:10:59;;;;;;;51.10;28.95;;;7.40;99.90;;;7.76;100.00;100769.41;5026148;28;20034;-76
2023/03/21 02:13:35;;;;;;;53.65;28.92;;;7.40;99.90;;;7.75;100.00;100770.44;5010030;28;20022;-75
2023/03/21 02:16:14;;;;;;;49.13;28.65;;;7.40;99.90;;;7.67;100.00;100767.84;5008947;28;20116;-74
2023/03/21 02:19:18;;;;;;;55.72;29.45;;;7.40;99.90;;;7.68;100.00;100764.09;4994527;28;20449;-75
2023/03/21 02:22:39;;;;;;;50.58;28.00;;;7.50;99.90;;;7.76;100.00;100763.97;5023900;28;20038;-75
2023/03/21 02:25:33;;;;;;;50.42;29.17;;;7.40;99.90;;;7.90;100.00;100757.59;5006673;28;20038;-75
2023/03/21 02:28:17;;;;;;;58.95;29.88;;;7.40;99.90;;;7.72;100.00;100754.53;5005014;28;20037;-75
2023/03/21 02:31:20;;;;;;;56.83;30.10;;;7.40;99.90;;;7.62;100.00;100749.44;5008422;28;20049;-75
2023/03/21 02:34:28;;;;;;;55.28;29.55;;;7.40;99.90;;;7.52;100.00;100747.03;5009330;28;20474;-75
2023/03/21 02:37:30;;;;;;;55.13;30.10;;;7.40;99.90;;;7.80;100.00;100737.25;5003268;28;20034;-75
2023/03/21 02:40:19;;;;;;;52.20;29.33;;;7.40;99.90;;;7.96;100.00;100741.56;5008472;28;20121;-74
2023/03/21 02:43:03;;;;;;;50.05;28.20;;;7.40;99.90;;;7.76;100.00;100743.06;5002717;28;20512;-75
2023/03/21 02:45:50;;;;;;;60.55;31.45;;;7.50;99.90;;;7.87;100.00;100744.41;5008804;28;20033;-75
2023/03/21 02:48:28;;;;;;;54.85;29.48;;;7.50;99.90;;;7.87;100.00;100749.84;5009475;28;20044;-75
2023/03/21 02:50:59;;;;;;;56.97;29.13;;;7.50;99.90;;;7.67;100.00;100743.41;5007871;28;20030;-74
2023/03/21 02:53:35;;;;;;;58.42;29.88;;;7.50;99.90;;;7.76;100.00;100736.81;5010877;28;20113;-75
2023/03/21 02:56:09;;;;;;;60.63;29.58;;;7.50;99.90;;;7.79;100.00;100730.97;5009330;28;20504;-74
2023/03/21 02:58:39;;;;;;;52.53;28.45;;;7.50;99.90;;;7.86;100.00;100733.75;5025622;28;20034;-74
2023/03/21 03:01:08;;;;;;;60.08;28.75;;;7.50;99.90;;;7.92;100.00;100724.81;5009230;28;20034;-75
2023/03/21 03:03:41;;;;;;;52.90;28.33;;;7.50;99.90;;;7.71;100.00;100723.81;5020297;28;20108;-74
2023/03/21 03:06:33;;;;;;;58.87;28.40;;;7.50;99.90;;;8.02;100.00;100733.44;4989051;28;20387;-75
2023/03/21 03:09:29;;;;;;;55.92;27.55;;;7.60;99.90;;;7.88;100.00;100724.34;5006991;28;20763;-75
2023/03/21 03:12:15;;;;;;;57.20;28.45;;;7.60;99.90;;;7.90;100.00;100730.44;5003407;28;20096;-75
2023/03/21 03:15:25;;;;;;;53.20;26.88;;;7.60;99.90;;;7.89;100.00;100714.34;5005134;28;20042;-75
2023/03/21 03:18:17;;;;;;;51.53;27.33;;;7.60;99.90;;;8.02;100.00;100729.91;5009759;28;20030;-75
2023/03/21 03:21:17;;;;;;;55.92;27.08;;;7.60;99.90;;;8.03;100.00;100724.25;5007030;28;20050;-75
2023/03/21 03:24:13;;;;;;;51.35;27.33;;;7.60;99.90;;;8.09;100.00;100717.19;5005570;28;20460;-74
2023/03/21 03:26:50;;;;;;;58.45;27.25;;;7.60;99.90;;;8.05;100.00;100721.34;4999791;28;20050;-75
2023/03/21 03:29:20;;;;;;;47.80;26.15;;;7.70;99.90;;;8.02;100.00;100719.88;5023582;28;20035;-75
2023/03/21 03:32:00;;;;;;;49.00;27.52;;;7.70;99.90;;;8.03;100.00;100710.66;4997562;28;20030;-74
2023/03/21 03:34:38;;;;;;;49.30;24.25;;;7.70;99.90;;;7.97;100.00;100716.91;4976889;28;20497;-74
2023/03/21 03:37:10;;;;;;;45.55;25.25;;;7.70;99.90;;;7.91;100.00;100709.56;5008918;28;20117;-74
2023/03/21 03:39:56;;;;;;;52.60;25.27;;;7.70;99.90;;;8.04;100.00;100722.41;5009879;28;20046;-75
2023/03/21 03:42:33;;;;;;;48.13;26.05;;;7.70;99.90;;;8.02;100.00;100716.31;5003122;28;20035;-75
2023/03/21 03:45:09;;;;;;;47.50;25.92;;;7.70;99.90;;;7.96;100.00;100703.53;5010144;28;20501;-74
2023/03/21 03:47:49;;;;;;;47.13;26.08;;;7.70;99.90;;;8.12;100.00;100714.09;5008679;28;20030;-75
2023/03/21 03:50:30;;;;;;;49.25;26.23;;;7.70;99.90;;;8.06;100.00;100715.72;5009320;28;20038;-74
2023/03/21 03:53:14;;;;;;;45.17;25.15;;;7.70;99.90;;;8.02;100.00;100719.03;5021928;28;20118;-75
2023/03/21 03:55:40;;;;;;;40.47;23.52;;;7.70;99.90;;;8.01;100.00;100710.03;5024527;28;20034;-74
2023/03/21 03:58:11;;;;;;;46.70;24.38;;;7.70;99.90;;;8.02;100.00;100709.00;5008616;28;20391;-75
2023/03/21 04:00:40;;;;;;;46.22;24.67;;;7.70;99.90;;;8.01;100.00;100714.66;5010427;28;20040;-76
2023/03/21 04:03:08;;;;;;;48.60;23.83;;;7.70;99.90;;;7.97;100.00;100705.22;5005131;28;20031;-76
2023/03/21 04:05:35;;;;;;;45.33;24.50;;;7.80;99.90;;;8.04;100.00;100706.09;5002822;28;20045;-76
2023/03/21 04:08:01;;;;;;;41.83;23.88;;;7.80;99.90;;;8.09;100.00;100714.47;5009873;28;20060;-75
2023/03/21 04:10:35;;;;;;;45.30;24.83;;;7.80;99.90;;;7.97;100.00;100702.50;5024976;28;20129;-76
2023/03/21 04:13:01;;;;;;;44.20;25.27;;;7.80;99.90;;;7.97;100.00;100710.66;5025027;28;20106;-75
2023/03/21 04:15:32;;;;;;;43.10;25.13;;;7.80;99.90;;;7.95;100.00;100708.13;5024055;28;20026;-76
2023/03/21 04:18:05;;;;;;;42.70;23.25;;;7.80;99.90;;;8.04;100.00;100703.38;5013432;28;20045;-75
2023/03/21 04:20:30;;;;;;;42.00;23.58;;;7.80;99.90;;;8.03;100.00;100710.66;5023927;28;20065;-76
2023/03/21 04:22:56;;;;;;;41.83;23.67;;;7.80;99.90;;;8.01;100.00;100706.50;5009065;28;20034;-75
2023/03/21 04:25:23;;;;;;;43.38;24.48;;;7.80;99.90;;;8.16;100.00;100701.78;4984944;28;20398;-74
2023/03/21 04:27:52;;;;;;;42.53;23.45;;;7.80;99.90;;;8.16;100.00;100707.19;5002497;28;20090;-74
2023/03/21 04:30:34;;;;;;;41.60;22.90;;;7.80;99.90;;;8.22;100.00;100708.28;5024243;28;20041;-74
2023/03/21 04:33:05;;;;;;;38.42;23.85;;;7.80;99.90;;;8.26;100.00;100695.16;5008347;28;20046;-74
2023/03/21 04:35:33;;;;;;;42.75;23.30;;;7.80;99.90;;;8.29;100.00;100695.56;5008128;28;20053;-74
2023/03/21 04:38:01;;;;;;;42.65;24.35;;;7.80;99.90;;;8.23;100.00;100695.56;5007007;28;20042;-74
2023/03/21 04:40:26;;;;;;;38.92;22.38;;;7.80;99.90;;;8.16;100.00;100693.63;5007630;28;20034;-75
2023/03/21 04:42:54;;;;;;;41.53;24.65;;;7.80;99.90;;;8.20;100.00;100694.88;5020490;28;20026;-74
2023/03/21 04:45:20;;;;;;;45.95;23.88;;;7.80;99.90;;;8.23;100.00;100692.84;5024749;28;20058;-74
2023/03/21 04:47:46;;;;;;;43.85;23.30;;;7.80;99.90;;;8.17;100.00;100698.00;5006337;28;20104;-74
2023/03/21 04:50:12;;;;;;;42.88;23.55;;;7.80;99.90;;;8.17;100.00;100695.28;5009392;28;20061;-75
2023/03/21 04:52:39;;;;;;;46.22;24.98;;;7.80;99.90;;;8.29;100.00;100694.75;5007944;28;20030;-75
2023/03/21 04:55:08;;;;;;;40.42;22.80;;;7.80;99.90;;;8.41;100.00;100684.16;5024695;28;20036;-74
2023/03/21 04:57:38;;;;;;;39.75;23.45;;;7.90;99.90;;;8.35;100.00;100692.06;5009239;28;20030;-74
2023/03/21 05:00:09;;;;;;;40.47;23.25;;;7.90;99.90;;;8.24;100.00;100695.34;5024303;28;20401;-75
2023/03/21 05:02:35;;;;;;;40.47;23.05;;;7.90;99.90;;;8.37;100.00;100701.91;5011836;28;20334;-75
2023/03/21 05:05:01;;;;;;;36.58;22.08;;;7.90;99.90;;;8.20;100.00;100694.06;5010674;28;20045;-75
2023/03/21 05:07:27;;;;;;;40.83;24.10;;;7.90;99.90;;;8.38;100.00;100704.41;5011941;28;20038;-75
2023/03/21 05:09:53;;;;;;;40.67;22.20;;;7.90;99.90;;;8.26;100.00;100708.75;5006871;28;20512;-74
2023/03/21 05:12:19;;;;;;;40.80;23.08;;;7.90;99.90;;;8.42;100.00;100692.09;5027197;28;20029;-75
2023/03/21 05:14:45;;;;;;;41.03;23.58;;;7.90;99.90;;;8.39;100.00;100692.50;5010105;28;20030;-75
2023/03/21 05:17:14;;;;;;;46.25;24.30;;;7.90;99.90;;;8.30;100.00;100699.97;5012805;28;20089;-74
2023/03/21 05:19:41;;;;;;;42.15;23.15;;;7.90;99.90;;;8.31;100.00;100693.50;5027187;28;20733;-75
2023/03/21 05:22:10;;;;;;;39.72;23.45;;;7.90;99.90;;;8.35;100.00;100702.09;5012216;28;20104;-75
2023/03/21 05:24:40;;;;;;;36.70;22.02;;;7.90;99.90;;;8.34;100.00;100694.97;5021966;28;20029;-75
2023/03/21 05:27:09;;;;;;;45.38;24.48;;;7.90;99.90;;;8.27;100.00;100683.25;5010492;28;20127;-75
2023/03/21 05:29:41;;;;;;;39.80;22.15;;;7.90;99.90;;;8.42;100.00;100697.53;5024619;28;20425;-75
2023/03/21 05:32:08;;;;;;;41.22;22.77;;;7.90;99.90;;;8.37;100.00;100694.56;5025287;28;20042;-76
2023/03/21 05:34:34;;;;;;;39.80;23.52;;;7.90;99.90;;;8.43;100.00;100688.31;5010835;28;20064;-76
2023/03/21 05:37:00;;;;;;;39.60;22.08;;;7.90;99.90;;;8.40;100.00;100691.44;4984007;28;20030;-75
2023/03/21 05:39:36;;;;;;;38.95;22.20;;;8.00;99.90;;;8.39;100.00;100692.50;5009382;28;20034;-77
2023/03/21 05:42:08;;;;;;;36.92;22.33;;;8.00;99.90;;;8.29;100.00;100675.72;4993185;28;20065;-77
2023/03/21 05:44:34;;;;;;;37.67;21.65;;;8.00;99.90;;;8.37;100.00;100686.41;5010959;28;20041;-78
2023/03/21 05:47:04;;;;;;;38.83;22.90;;;8.00;99.90;;;8.41;100.00;100690.41;5011762;28;20034;-75
2023/03/21 05:49:37;;;;;;;39.72;22.63;;;8.00;99.90;;;8.40;100.00;100694.16;5020574;28;20049;-75
2023/03/21 05:52:04;;;;;;;45.05;24.95;;;8.10;99.90;;;8.51;100.00;100689.25;5010214;28;20025;-75
2023/03/21 05:54:29;;;;;;;39.10;22.20;;;8.10;99.90;;;8.48;100.00;100695.88;5023971;28;20031;-75
2023/03/21 05:56:56;;;;;;;39.42;23.02;;;8.20;99.90;;;8.46;100.00;100685.19;5010221;28;20036;-75
2023/03/21 05:59:41;;;;;;;36.42;22.50;;;8.20;99.90;;;8.51;100.00;100690.06;5022577;28;20141;-75
2023/03/21 06:02:07;;;;;;;40.75;23.23;;;8.20;99.90;;;8.56;100.00;100693.00;5020069;28;20080;-75
2023/03/21 06:04:33;;;;;;;42.10;22.77;;;8.20;99.90;;;8.52;100.00;100685.50;5012473;28;20417;-75
2023/03/21 06:06:59;;;;;;;41.15;23.05;;;8.20;99.90;;;8.60;100.00;100690.75;5009145;28;20438;-75
2023/03/21 06:09:25;;;;;;;43.35;22.63;;;8.30;99.90;;;8.61;100.00;100692.41;5010647;28;20034;-76
2023/03/21 06:11:56;;;;;;;37.63;21.50;;;8.30;99.90;;;8.57;100.00;100691.16;5003740;28;20129;-75
2023/03/21 06:14:58;;;;;;;37.28;22.25;;;8.30;99.90;;;8.53;100.00;100673.56;5019345;28;20133;-76
2023/03/21 06:17:31;;;;;;;38.72;23.67;;;8.40;99.90;;;8.68;100.00;100695.19;5026068;28;20042;-76
2023/03/21 06:20:06;;;;;;;38.47;21.65;;;8.40;99.90;;;8.87;100.00;100686.22;5009439;28;20038;-75
2023/03/21 06:22:39;;;;;;;33.60;20.33;;;8.40;99.90;;;8.70;100.00;100691.19;5007055;28;20064;-75
2023/03/21 06:25:07;;;;;;;33.47;20.35;;;8.40;99.90;;;8.69;100.00;100694.97;5026853;28;20065;-75
2023/03/21 06:27:34;;;;;;;36.22;20.52;;;8.40;99.90;;;8.75;100.00;100694.16;5005434;28;20034;-75
2023/03/21 06:30:00;;;;;;;34.45;20.45;;;8.50;99.90;;;8.75;100.00;100701.47;5025822;28;20511;-74
2023/03/21 06:32:27;;;;;;;39.08;20.80;;;8.50;99.90;;;8.77;100.00;100699.38;5026884;28;20517;-75
2023/03/21 06:35:06;;;;;;;37.28;20.35;;;8.50;99.90;;;8.82;100.00;100696.06;5009029;28;20057;-75
2023/03/21 06:37:31;;;;;;;36.10;20.33;;;8.50;99.90;;;8.80;100.00;100700.88;5008233;28;20044;-74
2023/03/21 06:39:57;;;;;;;35.38;20.10;;;8.50;99.90;;;8.75;100.00;100686.00;5005311;28;20417;-75
2023/03/21 06:42:24;;;;;;;37.60;20.42;;;8.60;99.90;;;8.79;100.00;100691.84;5011632;28;20388;-76
2023/03/21 06:44:51;;;;;;;36.97;19.42;;;8.60;99.90;;;8.97;100.00;100694.00;5009987;28;20034;-75
2023/03/21 06:47:17;;;;;;;34.08;19.17;;;8.60;99.90;;;8.95;100.00;100696.09;5026602;28;20153;-75
2023/03/21 06:49:45;;;;;;;31.05;18.55;;;8.60;99.90;;;8.89;100.00;100702.34;5025719;28;20474;-76
2023/03/21 06:52:12;;;;;;;39.75;20.50;;;8.60;99.90;;;8.84;100.00;100696.69;4988471;28;20397;-75
2023/03/21 06:54:38;;;;;;;36.78;20.08;;;8.60;99.90;;;8.92;100.00;100704.66;5001690;28;20498;-76
2023/03/21 06:57:10;;;;;;;33.15;18.88;;;8.60;99.90;;;8.88;100.00;100700.69;5023248;28;20037;-76
2023/03/21 06:59:37;;;;;;;39.15;19.50;;;8.60;99.90;;;8.93;100.00;100700.91;5007495;28;20081;-75
2023/03/21 07:02:11;;;;;;;33.08;19.10;;;8.70;99.90;;;8.91;100.00;100705.72;5024527;28;20037;-75
2023/03/21 07:04:49;;;;;;;37.38;19.45;;;8.70;99.90;;;9.05;100.00;100691.13;5004192;28;20686;-75
2023/03/21 07:07:18;;;;;;;34.22;19.10;;;8.70;99.90;;;9.04;100.00;100699.47;5002236;28;20449;-76
2023/03/21 07:09:44;;;;;;;35.58;19.42;;;8.80;99.90;;;9.15;100.00;100703.47;5011214;28;20116;-74
2023/03/21 07:12:10;;;;;;;33.88;17.60;;;8.80;99.90;;;9.16;100.00;100696.97;5009320;28;20385;-75
2023/03/21 07:15:03;;;;;;;30.63;18.52;;;8.80;99.90;;;9.28;100.00;100706.25;5014619;28;20042;-76
2023/03/21 07:17:30;;;;;;;31.55;18.20;;;8.90;99.90;;;9.34;100.00;100705.41;5025437;28;20026;-77
2023/03/21 07:19:56;;;;;;;34.38;18.95;;;8.90;99.90;;;9.29;100.00;100697.03;5009106;28;20103;-75
2023/03/21 07:22:22;;;;;;;34.08;17.85;;;9.00;99.90;;;9.42;100.00;100700.78;5008511;28;20045;-76
2023/03/21 07:24:48;;;;;;;28.50;17.15;;;9.00;99.90;;;9.46;100.00;100704.78;5009916;28;20037;-76
2023/03/21 07:27:15;;;;;;;31.45;17.35;;;9.10;99.90;;;9.52;100.00;100709.38;5009560;28;20030;-76
2023/03/21 07:29:42;;;;;;;32.38;17.42;;;9.10;99.90;;;9.50;100.00;100708.75;5009928;28;20041;-75
2023/03/21 07:32:10;;;;;;;31.17;16.50;;;9.10;99.90;;;9.40;100.00;100703.72;5008204;28;20524;-75
2023/03/21 07:34:36;;;;;;;30.05;16.25;;;9.20;99.90;;;9.46;100.00;100702.06;5009082;28;20445;-76
2023/03/21 07:37:05;;;;;;;32.53;15.85;;;9.20;99.90;;;9.49;100.00;100691.59;4991833;28;20144;-76
2023/03/21 07:39:32;;;;;;;25.08;15.65;;;9.30;99.90;;;9.55;100.00;100689.94;5022257;28;20496;-75
2023/03/21 07:41:58;;;;;;;27.15;16.42;;;9.30;99.90;;;9.69;100.00;100679.00;5024882;28;20025;-75
2023/03/21 07:44:32;;;;;;;29.92;14.68;;;9.40;99.90;;;9.90;100.00;100686.13;5025058;28;20050;-75
2023/03/21 07:47:01;;;;;;;30.35;15.98;;;9.50;99.90;;;10.12;100.00;100684.00;5022385;28;20068;-74
2023/03/21 07:49:27;;;;;;;24.85;14.35;;;9.60;99.90;;;10.15;100.00;100669.94;5009255;28;20069;-76
2023/03/21 07:51:53;;;;;;;23.63;14.23;;;9.70;99.90;;;10.27;100.00;100669.28;5008646;28;20053;-76
2023/03/21 07:54:21;;;;;;;24.50;13.50;;;9.90;99.90;;;10.21;100.00;100669.09;5009488;28;20435;-75
2023/03/21 07:56:47;;;;;;;;;;;10.00;99.90;;;10.45;100.00;100677.66;5026653;28;20032;-76
2023/03/21 07:59:13;;;;;;;24.60;13.30;;;10.10;99.90;;;10.46;100.00;100662.94;5011005;28;19917;-73
2023/03/21 08:01:39;;;;;;;27.88;13.95;;;10.20;99.90;;;10.62;100.00;100675.25;5008345;28;20034;-74
2023/03/21 08:04:05;;;;;;;24.52;13.75;;;10.40;99.90;;;10.66;100.00;100670.22;5009391;28;20045;-73
2023/03/21 08:06:31;;;;;;;21.13;12.88;;;10.50;99.90;;;10.71;100.00;100675.00;5009128;28;20121;-73
2023/03/21 08:08:58;;;;;;;24.65;12.85;;;10.60;99.90;;;10.90;100.00;100678.72;5008113;28;20029;-72
2023/03/21 08:11:24;;;;;;;21.40;13.00;;;10.80;99.90;;;11.18;100.00;100675.59;5009313;28;20038;-74
2023/03/21 08:13:50;;;;;;;22.02;12.85;;;11.00;99.90;;;11.20;100.00;100667.19;5009875;28;20049;-73
2023/03/21 08:16:16;;;;;;;22.73;11.85;;;11.20;99.90;;;11.15;100.00;100664.28;5008092;28;20365;-75
2023/03/21 08:18:42;;;;;;;23.42;12.88;;;11.30;99.90;;;11.29;100.00;100665.84;5008736;28;20042;-74
2023/03/21 08:21:08;;;;;;;24.90;12.88;;;11.30;99.90;;;11.34;100.00;100671.47;5003189;28;20127;-73
2023/03/21 08:23:35;;;;;;;19.27;11.73;;;11.30;99.90;;;11.22;100.00;100668.63;5024113;28;20046;-75
2023/03/21 08:26:00;;;;;;;21.55;11.85;;;11.30;99.90;;;11.20;100.00;100669.91;5010076;28;20042;-74
2023/03/21 08:28:26;;;;;;;18.98;11.43;;;11.40;99.90;;;11.15;100.00;100672.47;5008588;28;20038;-75
2023/03/21 08:30:52;;;;;;;28.20;13.25;;;11.30;99.90;;;11.10;100.00;100675.88;5013050;28;20036;-77
2023/03/21 08:33:19;;;;;;;26.25;12.80;;;11.20;99.90;;;11.05;100.00;100679.25;5008199;28;20061;-76
2023/03/21 08:35:45;;;;;;;21.70;11.65;;;11.30;99.90;;;11.21;100.00;100679.78;5011259;28;20041;-75
2023/03/21 08:38:11;;;;;;;23.40;12.40;;;11.40;99.90;;;11.40;100.00;100674.38;5012385;28;20442;-75
2023/03/21 08:40:37;;;;;;;26.88;12.70;;;11.50;99.90;;;11.43;100.00;100672.06;5026648;28;20045;-74
2023/03/21 08:43:03;;;;;;;20.73;11.63;;;11.50;99.90;;;10.60;100.00;100671.91;5013429;28;20038;-74
2023/03/21 08:45:29;;;;;;;21.05;11.85;;;11.40;99.90;;;11.89;98.92;100669.97;5020160;28;20056;-75
2023/03/21 08:47:55;;;;;;;21.08;11.60;;;11.60;99.90;;;11.84;96.83;100658.88;5012669;28;20088;-75
2023/03/21 08:50:28;;;;;;;23.65;11.85;;;11.50;99.90;;;11.93;96.59;100659.44;5012448;28;20113;-74
2023/03/21 08:52:54;;;;;;;21.90;12.05;;;11.60;99.90;;;11.89;97.03;100671.88;5007634;28;20045;-74
2023/03/21 08:55:20;;;;;;;22.10;12.13;;;11.70;99.90;;;12.00;97.33;100676.59;5013345;28;20047;-73
2023/03/21 08:57:46;;;;;;;22.45;11.93;;;11.70;99.90;;;11.97;96.52;100673.50;5013443;28;20038;-74
2023/03/21 09:00:17;;;;;;;23.30;11.82;;;11.80;99.90;;;11.99;96.39;100683.13;5012855;28;20046;-75
2023/03/21 09:02:48;;;;;;;24.65;12.25;;;11.70;99.90;;;11.91;97.97;100678.78;5011761;28;20041;-74
2023/03/21 09:05:15;;;;;;;23.30;12.18;;;11.80;99.90;;;11.85;95.79;100670.66;5027198;28;20030;-74
2023/03/21 09:07:41;;;;;;;23.63;11.98;;;11.80;99.90;;;11.90;95.85;100668.91;5010093;28;20482;-73
2023/03/21 09:10:16;;;;;;;24.45;12.30;;;11.70;99.90;;;11.65;97.22;100677.97;5013135;28;20046;-75
2023/03/21 09:12:42;;;;;;;23.70;12.05;;;11.60;99.90;;;11.79;96.69;100656.81;5012625;28;20030;-78
2023/03/21 09:15:11;;;;;;;24.20;12.20;;;11.40;99.90;;;11.86;95.82;100666.88;5028310;28;20398;-75
2023/03/21 09:17:41;;;;;;;28.88;12.05;;;11.50;99.90;;;11.72;94.88;100660.69;5011793;28;20411;-75
2023/03/21 09:20:17;;;;;;;26.15;12.27;;;11.30;99.90;;;11.73;95.63;100665.91;5012527;28;20402;-75
2023/03/21 09:22:46;;;;;;;26.77;12.75;;;11.40;99.90;;;11.74;95.20;100666.78;5013319;28;20049;-74
2023/03/21 09:25:14;;;;;;;28.52;12.90;;;11.40;99.90;;;11.64;95.85;100664.53;5013234;28;20042;-74
2023/03/21 09:27:40;;;;;;;23.88;11.93;;;11.40;99.90;;;11.64;95.34;100673.56;5012715;28;20030;-75
2023/03/21 09:30:08;;;;;;;23.48;12.25;;;11.40;99.90;;;11.48;95.36;100668.66;5027108;28;20076;-74
2023/03/21 09:32:35;;;;;;;24.75;12.07;;;11.40;99.90;;;11.64;95.35;100662.63;5011788;28;20556;-75
2023/03/21 09:35:01;;;;;;;23.60;12.07;;;11.50;99.90;;;11.75;96.21;100673.91;5010939;28;20049;-75
2023/03/21 09:37:27;;;;;;;23.60;12.05;;;11.60;99.90;;;12.06;94.41;100658.50;5011019;28;20040;-75
2023/03/21 09:39:55;;;;;;;25.80;12.23;;;11.70;99.90;;;12.10;91.08;100653.41;5011011;28;20034;-74
2023/03/21 09:42:36;;;;;;;;;;;11.90;99.90;;;12.40;92.47;100660.88;5013416;28;20406;-74
2023/03/21 09:45:34;;;;;;;24.90;10.82;;;12.10;99.90;;;12.64;90.93;100653.59;5012211;28;20361;-74
2023/03/21 09:48:01;;;;;;;23.13;11.65;;;12.30;99.90;;;12.85;89.33;100655.00;5011560;28;20647;-75
2023/03/21 09:50:35;;;;;;;22.02;11.13;;;12.60;99.90;;;13.08;87.65;100646.06;5011641;28;20447;-75
2023/03/21 09:53:19;;;;;;;21.15;10.18;;;12.80;99.90;;;12.94;85.82;100639.09;5012126;28;20504;-74
2023/03/21 09:55:46;;;;;;;21.70;10.73;;;13.00;99.90;;;13.02;85.61;100636.03;5009409;28;20044;-74
2023/03/21 09:58:29;;;;;;;23.45;11.05;;;13.00;99.90;;;13.27;84.15;100647.88;5021636;28;20092;-74
2023/03/21 10:01:44;;;;;;;23.75;10.45;;;13.10;99.90;;;13.30;82.05;100656.47;5011199;28;20468;-74
2023/03/21 10:04:17;;;;;;;23.90;10.50;;;13.30;99.90;;;13.84;79.73;100641.91;5006167;28;20046;-75
2023/03/21 10:06:53;;;;;;;23.75;11.00;;;13.60;99.90;;;13.74;79.50;100641.63;5012662;28;20091;-73
2023/03/21 10:09:23;;;;;;;19.48;10.00;;;13.70;99.90;;;13.88;78.21;100628.53;5008280;28;20132;-74
2023/03/21 10:12:07;;;;;;;22.73;10.20;;;13.80;99.90;;;14.04;78.18;100636.03;5009689;28;20037;-74
2023/03/21 10:14:44;;;;;;;27.90;10.48;;;13.90;99.90;;;13.98;79.99;100633.41;5007438;28;20044;-74
2023/03/21 10:17:33;;;;;;;23.48;9.45;;;13.80;99.90;;;13.76;78.85;100636.75;5006898;28;20417;-75
2023/03/21 10:20:33;;;;;;;16.67;8.63;;;13.70;99.90;;;13.88;76.95;100634.84;5007209;28;20042;-74
2023/03/21 10:23:05;;;;;;;21.23;9.88;;;13.60;99.90;;;13.77;79.48;100632.94;4999283;28;20051;-74
2023/03/21 10:26:03;;;;;;;21.33;9.45;;;13.50;99.90;;;13.69;79.58;100630.56;5009549;28;20091;-75
2023/03/21 10:28:36;;;;;;;16.95;8.27;;;13.40;99.90;;;13.08;81.28;100624.13;4998575;28;20062;-75
2023/03/21 10:31:06;;;;;;;17.60;9.07;;;13.10;99.90;;;12.98;81.56;100626.59;5005747;28;20363;-75